WMKP Airport Information

Runway Information
Runway 04 Length 10997 ft width 150 ft
Elevation 10 ft Threshold 0 ft Heading 42
Runway 22 Length 10997 ft Width 150 ft
Elevation 11 ft Threshold 0 ft Heading 222
Airport Frequencies
Type ATIS Name ATIS Frequency 126.4 MHZ
Type GND Name PENANG GR Frequency 121.6 MHZ
Type TWR Name PENANG TOW Frequency 121.1 MHZ
Airport Navaids
Type NDB Name Penang Frequency 406 KHZ
Type VOR-DME Name Penang Frequency 116200 KHZ
Airport Weather Information & NOTAM
ADDS - METARS form results

(1628 UTC 07 December 2019)
Data provider http://aviationweather.gov/metar/data/
 
METAR text: WMKP 071600Z 03007G17KT 9000 FEW025 27/21 Q1012 NOSIG
Conditions at: WMKP (PENANG/BAYAN LEP, MY) observed 1600 UTC 07 December 2019
Temperature: 27.0°C (81°F)
Dewpoint: 21.0°C (70°F) [RH = 70%]
Pressure (altimeter): 29.88 inches Hg (1012.0 mb)
Winds: from the NNE (30 degrees) at 8 MPH (7 knots; 3.6 m/s)
gusting to 20 MPH (17 knots; 8.7 m/s)
Visibility: 6 miles ( 9 km)
Ceiling: at least 12,000 feet AGL
Clouds: few clouds at 2500 feet AGL
Weather: no significant weather observed at this time

METAR text: WMKP 071530Z 05007G23KT 010V070 9000 FEW017CB 27/21 Q1012 NOSIG
Conditions at: WMKP (PENANG/BAYAN LEP, MY) observed 1530 UTC 07 December 2019
Temperature: 27.0°C (81°F)
Dewpoint: 21.0°C (70°F) [RH = 70%]
Pressure (altimeter): 29.88 inches Hg (1012.0 mb)
Winds: from the NE (50 degrees) at 8 MPH (7 knots; 3.6 m/s)
gusting to 26 MPH (23 knots; 11.8 m/s)
Visibility: 6 miles ( 9 km)
Ceiling: at least 12,000 feet AGL
Clouds: few clouds at 1700 feet AGL
Weather: no significant weather observed at this time

Forecast for: AMD
Text: TAF AMD WMKP 071559Z 0715/0812 05010G28KT 9000 FEW025
Forecast period: 1500 UTC 07 December 2019 to 0600 UTC 08 December 2019
Forecast type: FROM: standard forecast or significant change
Winds: from the NE (50 degrees) at 12 MPH (10 knots; 5.1 m/s)
gusting to 32 MPH (28 knots; 14.4 m/s)
Visibility: 6 miles (9 km)
Ceiling: at least 12,000 feet AGL
Clouds: few clouds at 2500 feet AGL
Weather: no significant weather forecast for this period
Text: BECMG 0806/0808 24010KT 9999 FEW020
Forecast period: 0600 to 1200 UTC 08 December 2019
Forecast type: BECOMING: Conditions expected to become as follows by 0800 UTC 08 December 2019
Winds: from the WSW (240 degrees) at 12 MPH (10 knots; 5.1 m/s)
Visibility: 6 or more miles 10+ km)
Ceiling: at least 12,000 feet AGL
Clouds: few clouds at 2000 feet AGL
Weather: no significant weather forecast for this period